Time;durP1;ratioP1;P1;durP2;ratioP2;P2;SDS_P1;SDS_P2;PMS_P1;PMS_P2;Temp;Humidity;BMP_temperature;BMP_pressure;BME280_temperature;BME280_humidity;BME280_pressure;Samples;Min_cycle;Max_cycle;Signal;HPM_P1;HPM_P2
2022/09/29 00:00:08;;;;;;;;;;;;;;;;;;5030647;28;19921;-84
2022/09/29 00:02:55;;;;;;;;;;;;;;;;;;5024883;28;19917;-84
2022/09/29 00:05:41;;;;;;;;;;;;;;;;;;5026025;28;19913;-82
2022/09/29 00:08:28;;;;;;;;;;;;;;;;;;5043119;28;19913;-83
2022/09/29 00:11:14;;;;;;;;;;;;;;;;;;5029115;28;20374;-82
2022/09/29 00:14:01;;;;;;;;;;;;;;;;;;5035840;28;19923;-83
2022/09/29 00:16:47;;;;;;;;;;;;;;;;;;5034242;28;20383;-83
2022/09/29 00:19:34;;;;;;;;;;;;;;;;;;5043420;28;19935;-83
2022/09/29 00:22:20;;;;;;;;;;;;;;;;;;5029433;28;19925;-82
2022/09/29 00:25:07;;;;;;;;;;;;;;;;;;5028944;28;19917;-82
2022/09/29 00:27:53;;;;;;;;;;;;;;;;;;5047814;28;20261;-83
2022/09/29 00:30:40;;;;;;;;;;;;;;;;;;5041950;28;19935;-83
2022/09/29 00:33:26;;;;;;;;;;;;;;;;;;5025310;28;19928;-84
2022/09/29 00:36:13;;;;;;;;;;;;;;;;;;5047117;28;19950;-84
2022/09/29 00:38:59;;;;;;;;;;;;;;;;;;5033060;28;19949;-83
2022/09/29 00:41:46;;;;;;;;;;;;;;;;;;5031376;28;19940;-84
2022/09/29 00:44:32;;;;;;;;;;;;;;;;;;5039591;28;19925;-84
2022/09/29 00:47:19;;;;;;;;;;;;;;;;;;5025584;28;19921;-83
2022/09/29 00:50:05;;;;;;;;;;;;;;;;;;5033241;28;19939;-83
2022/09/29 00:52:52;;;;;;;;;;;;;;;;;;5030342;28;19913;-82
2022/09/29 00:55:38;;;;;;;;;;;;;;;;;;5030628;28;19921;-82
2022/09/29 00:58:24;;;;;;;;;;;;;;;;;;5029452;28;19925;-81
2022/09/29 01:01:11;;;;;;;;;;;;;;;;;;5030383;28;19928;-82
2022/09/29 01:03:57;;;;;;;;;;;;;;;;;;5025667;28;20406;-82
2022/09/29 01:06:44;;;;;;;;;;;;;;;;;;5030708;28;19921;-83
2022/09/29 01:09:30;;;;;;;;;;;;;;;;;;5040166;28;19928;-82
2022/09/29 01:12:17;;;;;;;;;;;;;;;;;;5041200;28;19924;-82
2022/09/29 01:15:03;;;;;;;;;;;;;;;;;;5030412;28;20383;-83
2022/09/29 01:17:50;;;;;;;;;;;;;;;;;;5029465;28;19920;-84
2022/09/29 01:20:36;;;;;;;;;;;;;;;;;;5038572;28;19927;-85
2022/09/29 01:23:23;;;;;;;;;;;;;;;;;;5029522;28;19917;-83
2022/09/29 01:26:09;;;;;;;;;;;;;;;;;;5025875;28;19928;-83
2022/09/29 01:28:56;;;;;;;;;;;;;;;;;;5039014;28;19928;-82
2022/09/29 01:31:43;;;;;;;;;;;;;;;;;;5043866;28;19939;-83
2022/09/29 01:34:29;;;;;;;;;;;;;;;;;;5019069;28;19924;-84
2022/09/29 01:37:16;;;;;;;;;;;;;;;;;;5045247;28;19924;-87
2022/09/29 01:40:02;;;;;;;;;;;;;;;;;;5028300;28;19919;-84
2022/09/29 01:42:49;;;;;;;;;;;;;;;;;;5023762;28;20375;-83
2022/09/29 01:45:35;;;;;;;;;;;;;;;;;;5018397;28;19917;-83
2022/09/29 01:48:22;;;;;;;;;;;;;;;;;;5020951;28;20376;-82
2022/09/29 01:51:08;;;;;;;;;;;;;;;;;;5005727;28;19930;-84
2022/09/29 01:53:55;;;;;;;;;;;;;;;;;;5021102;28;19917;-84
2022/09/29 01:56:41;;;;;;;;;;;;;;;;;;5019947;28;19921;-84
2022/09/29 01:59:28;;;;;;;;;;;;;;;;;;5009748;28;19921;-83
2022/09/29 02:02:14;;;;;;;;;;;;;;;;;;5017107;28;19924;-81
2022/09/29 02:05:01;;;;;;;;;;;;;;;;;;5000545;28;19927;-82
2022/09/29 02:07:47;;;;;;;;;;;;;;;;;;5010437;28;19917;-83
2022/09/29 02:10:34;;;;;;;;;;;;;;;;;;5007755;28;19925;-82
2022/09/29 02:13:20;;;;;;;;;;;;;;;;;;5010862;28;20461;-82
2022/09/29 02:16:07;;;;;;;;;;;;;;;;;;5011631;28;19913;-86
2022/09/29 02:18:54;;;;;;;;;;;;;;;;;;5003432;28;19971;-83
2022/09/29 02:21:40;;;;;;;;;;;;;;;;;;5016831;28;19914;-83
2022/09/29 02:24:27;;;;;;;;;;;;;;;;;;5005387;28;19927;-84
2022/09/29 02:27:13;;;;;;;;;;;;;;;;;;5012205;28;19922;-86
2022/09/29 02:29:59;;;;;;;;;;;;;;;;;;5009298;28;20483;-86
2022/09/29 02:32:46;;;;;;;;;;;;;;;;;;5005456;28;19917;-86
2022/09/29 02:35:32;;;;;;;;;;;;;;;;;;5022473;28;19917;-85
2022/09/29 02:38:19;;;;;;;;;;;;;;;;;;4999574;28;19925;-84
2022/09/29 02:41:06;;;;;;;;;;;;;;;;;;5007535;28;19921;-84
2022/09/29 02:43:52;;;;;;;;;;;;;;;;;;5010681;28;20283;-83
2022/09/29 02:46:39;;;;;;;;;;;;;;;;;;5005682;28;19928;-83
2022/09/29 02:49:25;;;;;;;;;;;;;;;;;;5006367;28;19943;-84
2022/09/29 02:52:11;;;;;;;;;;;;;;;;;;5026826;28;19928;-86
2022/09/29 02:54:58;;;;;;;;;;;;;;;;;;5021797;28;19946;-86
2022/09/29 02:57:44;;;;;;;;;;;;;;;;;;5024132;28;19925;-86
2022/09/29 03:00:31;;;;;;;;;;;;;;;;;;5041466;28;20376;-86
2022/09/29 03:03:18;;;;;;;;;;;;;;;;;;5026339;28;19921;-84
2022/09/29 03:06:04;;;;;;;;;;;;;;;;;;5027471;28;20295;-84
2022/09/29 03:08:51;;;;;;;;;;;;;;;;;;5027596;28;20336;-82
2022/09/29 03:11:37;;;;;;;;;;;;;;;;;;5029186;28;19924;-83
2022/09/29 03:14:24;;;;;;;;;;;;;;;;;;5042610;28;19921;-84
2022/09/29 03:17:10;;;;;;;;;;;;;;;;;;5028371;28;19925;-83
2022/09/29 03:19:57;;;;;;;;;;;;;;;;;;5045681;28;19921;-84
2022/09/29 03:22:44;;;;;;;;;;;;;;;;;;5033858;28;19931;-83
2022/09/29 03:25:30;;;;;;;;;;;;;;;;;;5045842;28;20399;-84
2022/09/29 03:28:17;;;;;;;;;;;;;;;;;;5031169;28;19917;-84
2022/09/29 03:31:04;;;;;;;;;;;;;;;;;;5030277;28;19948;-86
2022/09/29 03:33:50;;;;;;;;;;;;;;;;;;5029753;28;19921;-86
2022/09/29 03:36:37;;;;;;;;;;;;;;;;;;5043013;28;19920;-85
2022/09/29 03:39:23;;;;;;;;;;;;;;;;;;5045295;28;19933;-85
2022/09/29 03:42:10;;;;;;;;;;;;;;;;;;5035070;28;19932;-86
2022/09/29 03:44:56;;;;;;;;;;;;;;;;;;5025469;28;19917;-85
2022/09/29 03:47:43;;;;;;;;;;;;;;;;;;5032160;28;19919;-85
2022/09/29 03:50:29;;;;;;;;;;;;;;;;;;5024487;28;20142;-81
2022/09/29 03:53:16;;;;;;;;;;;;;;;;;;5017093;28;19917;-83
2022/09/29 03:56:02;;;;;;;;;;;;;;;;;;5017625;28;19925;-84
2022/09/29 03:58:49;;;;;;;;;;;;;;;;;;5025524;28;19936;-83
2022/09/29 04:01:36;;;;;;;;;;;;;;;;;;5029861;28;21471;-87
2022/09/29 04:04:23;;;;;;;;;;;;;;;;;;5040016;28;19921;-87
2022/09/29 04:07:09;;;;;;;;;;;;;;;;;;5031413;28;20405;-87
2022/09/29 04:09:56;;;;;;;;;;;;;;;;;;5034331;28;19924;-86
2022/09/29 04:12:42;;;;;;;;;;;;;;;;;;5030882;28;20386;-87
2022/09/29 04:15:30;;;;;;;;;;;;;;;;;;5036078;28;20368;-83
2022/09/29 04:18:16;;;;;;;;;;;;;;;;;;5029644;28;19924;-85
2022/09/29 04:21:03;;;;;;;;;;;;;;;;;;5033203;28;19913;-86
2022/09/29 04:23:49;;;;;;;;;;;;;;;;;;5044419;28;20348;-84
2022/09/29 04:26:36;;;;;;;;;;;;;;;;;;5030749;28;19921;-87
2022/09/29 04:29:22;;;;;;;;;;;;;;;;;;5032033;28;20372;-86
2022/09/29 04:32:09;;;;;;;;;;;;;;;;;;5024768;28;19917;-85
2022/09/29 04:34:55;;;;;;;;;;;;;;;;;;5029016;28;20228;-86
2022/09/29 04:37:42;;;;;;;;;;;;;;;;;;4986432;28;19925;-86
2022/09/29 04:40:28;;;;;;;;;;;;;;;;;;5027345;28;19913;-92
2022/09/29 04:43:15;;;;;;;;;;;;;;;;;;5026536;28;19916;-95
2022/09/29 04:46:02;;;;;;;;;;;;;;;;;;5018231;28;19913;-90
2022/09/29 04:48:48;;;;;;;;;;;;;;;;;;5035773;28;19923;-88
2022/09/29 04:51:35;;;;;;;;;;;;;;;;;;5022993;28;19929;-88
2022/09/29 04:54:21;;;;;;;;;;;;;;;;;;5037904;28;19928;-88
2022/09/29 04:57:09;;;;;;;;;;;;;;;;;;5038450;28;20277;-89
2022/09/29 04:59:55;;;;;;;;;;;;;;;;;;5021687;28;19920;-90
2022/09/29 05:02:42;;;;;;;;;;;;;;;;;;5036148;28;20006;-90
2022/09/29 05:05:29;;;;;;;;;;;;;;;;;;5030534;28;20418;-89
2022/09/29 05:08:16;;;;;;;;;;;;;;;;;;5032026;28;20364;-90
2022/09/29 05:11:02;;;;;;;;;;;;;;;;;;5034638;28;20546;-89
2022/09/29 05:13:49;;;;;;;;;;;;;;;;;;5033016;28;19916;-89
2022/09/29 05:16:36;;;;;;;;;;;;;;;;;;5023301;28;19927;-89
2022/09/29 05:19:22;;;;;;;;;;;;;;;;;;5023768;28;20347;-87
2022/09/29 05:22:10;;;;;;;;;;;;;;;;;;5024911;28;19924;-87
2022/09/29 05:24:57;;;;;;;;;;;;;;;;;;5024687;28;19925;-88
2022/09/29 05:27:43;;;;;;;;;;;;;;;;;;5027761;28;20490;-89
2022/09/29 05:30:30;;;;;;;;;;;;;;;;;;5024740;28;19913;-87
2022/09/29 05:33:16;;;;;;;;;;;;;;;;;;5025436;28;20287;-90
2022/09/29 05:36:05;;;;;;;;;;;;;;;;;;5037054;28;19921;-91
2022/09/29 05:38:52;;;;;;;;;;;;;;;;;;5036819;28;19931;-90
2022/09/29 05:41:38;;;;;;;;;;;;;;;;;;5033167;28;19920;-91
2022/09/29 05:44:25;;;;;;;;;;;;;;;;;;5024086;28;19924;-88
2022/09/29 05:47:11;;;;;;;;;;;;;;;;;;5027795;28;19913;-86
2022/09/29 05:49:58;;;;;;;;;;;;;;;;;;5024482;28;19924;-89
2022/09/29 05:52:48;;;;;;;;;;;;;;;;;;5013077;28;20399;-90
2022/09/29 05:55:34;;;;;;;;;;;;;;;;;;5009046;28;19931;-90
2022/09/29 05:58:21;;;;;;;;;;;;;;;;;;5008265;28;20482;-89
2022/09/29 06:01:07;;;;;;;;;;;;;;;;;;5004067;28;20514;-88
2022/09/29 06:03:54;;;;;;;;;;;;;;;;;;5004766;28;19921;-89
2022/09/29 06:06:40;;;;;;;;;;;;;;;;;;5015187;28;19920;-89
2022/09/29 06:09:27;;;;;;;;;;;;;;;;;;5012853;28;19917;-76
2022/09/29 06:12:13;;;;;;;;;;;;;;;;;;5023019;28;19917;-83
2022/09/29 06:15:00;;;;;;;;;;;;;;;;;;5004014;28;20392;-89
2022/09/29 06:17:46;;;;;;;;;;;;;;;;;;5007492;28;19929;-86
2022/09/29 06:20:37;;;;;;;;;;;;;;;;;;5010742;28;19923;-84
2022/09/29 06:23:23;;;;;;;;;;;;;;;;;;5006746;28;19932;-86
2022/09/29 06:26:10;;;;;;;;;;;;;;;;;;5010744;28;20462;-84
2022/09/29 06:28:57;;;;;;;;;;;;;;;;;;5002273;28;19924;-85
2022/09/29 06:31:44;;;;;;;;;;;;;;;;;;5009254;28;19917;-82
2022/09/29 06:34:30;;;;;;;;;;;;;;;;;;5007869;28;20388;-83
2022/09/29 06:37:35;;;;;;;;;;;;;;;;;;5002337;28;19924;-83
2022/09/29 06:40:22;;;;;;;;;;;;;;;;;;5003527;28;19932;-84
2022/09/29 06:43:10;;;;;;;;;;;;;;;;;;5009522;28;19924;-84
2022/09/29 06:45:56;;;;;;;;;;;;;;;;;;5002248;28;19932;-84
2022/09/29 06:48:43;;;;;;;;;;;;;;;;;;5009887;28;19913;-83
2022/09/29 06:51:29;;;;;;;;;;;;;;;;;;5026210;28;19924;-83
2022/09/29 06:54:16;;;;;;;;;;;;;;;;;;5029409;28;20268;-84
2022/09/29 06:57:02;;;;;;;;;;;;;;;;;;5025708;28;19919;-84
2022/09/29 06:59:49;;;;;;;;;;;;;;;;;;5030099;28;19939;-84
2022/09/29 07:02:35;;;;;;;;;;;;;;;;;;5027757;28;19917;-84
2022/09/29 07:05:22;;;;;;;;;;;;;;;;;;5040590;28;19920;-83
2022/09/29 07:08:08;;;;;;;;;;;;;;;;;;5030491;28;20393;-83
2022/09/29 07:10:55;;;;;;;;;;;;;;;;;;5026385;28;20391;-84
2022/09/29 07:13:41;;;;;;;;;;;;;;;;;;5043803;28;19917;-83
2022/09/29 07:16:28;;;;;;;;;;;;;;;;;;5026204;28;19912;-83
2022/09/29 07:19:15;;;;;;;;;;;;;;;;;;5039929;28;20014;-84
2022/09/29 07:22:01;;;;;;;;;;;;;;;;;;5027080;28;19931;-84
2022/09/29 07:24:49;;;;;;;;;;;;;;;;;;5031069;28;19922;-84
2022/09/29 07:27:36;;;;;;;;;;;;;;;;;;5025278;28;20462;-83
2022/09/29 07:30:22;;;;;;;;;;;;;;;;;;5026819;28;19913;-84
2022/09/29 07:33:09;;;;;;;;;;;;;;;;;;5042478;28;19923;-83
2022/09/29 07:35:58;;;;;;;;;;;;;;;;;;5028903;28;19917;-84
2022/09/29 07:38:44;;;;;;;;;;;;;;;;;;5028110;28;19936;-84
2022/09/29 07:41:31;;;;;;;;;;;;;;;;;;5029309;28;19923;-83
2022/09/29 07:44:17;;;;;;;;;;;;;;;;;;5026959;28;19933;-84
2022/09/29 07:47:04;;;;;;;;;;;;;;;;;;5030580;28;19923;-83
2022/09/29 07:49:50;;;;;;;;;;;;;;;;;;5024262;28;20412;-83
2022/09/29 07:52:37;;;;;;;;;;;;;;;;;;5027299;28;19928;-83
2022/09/29 07:55:26;;;;;;;;;;;;;;;;;;5027972;28;19932;-83
2022/09/29 07:58:12;;;;;;;;;;;;;;;;;;5023173;28;19932;-83
2022/09/29 08:00:59;;;;;;;;;;;;;;;;;;5033115;28;19916;-83
2022/09/29 08:03:46;;;;;;;;;;;;;;;;;;5019731;28;20395;-83
2022/09/29 08:06:32;;;;;;;;;;;;;;;;;;5021579;28;19917;-83
2022/09/29 08:09:19;;;;;;;;;;;;;;;;;;5036920;28;19917;-82
2022/09/29 08:12:05;;;;;;;;;;;;;;;;;;5036649;28;20307;-82
2022/09/29 08:14:52;;;;;;;;;;;;;;;;;;5029355;28;19924;-82
2022/09/29 08:17:38;;;;;;;;;;;;;;;;;;5044875;28;19931;-83
2022/09/29 08:20:25;;;;;;;;;;;;;;;;;;5024678;28;19967;-83
2022/09/29 08:23:12;;;;;;;;;;;;;;;;;;5034888;28;19919;-83
2022/09/29 08:25:58;;;;;;;;;;;;;;;;;;5032785;28;19929;-83
2022/09/29 08:28:45;;;;;;;;;;;;;;;;;;5026084;28;20284;-83
2022/09/29 08:31:32;;;;;;;;;;;;;;;;;;5028848;28;19917;-82
2022/09/29 08:34:19;;;;;;;;;;;;;;;;;;5019601;28;19924;-83
2022/09/29 08:37:05;;;;;;;;;;;;;;;;;;5027606;28;19921;-82
2022/09/29 08:39:52;;;;;;;;;;;;;;;;;;5016910;28;19928;-82
2022/09/29 08:42:38;;;;;;;;;;;;;;;;;;5025024;28;20020;-83
2022/09/29 08:45:25;;;;;;;;;;;;;;;;;;5031041;28;19936;-82
2022/09/29 08:48:11;;;;;;;;;;;;;;;;;;5031603;28;20395;-82
2022/09/29 08:50:58;;;;;;;;;;;;;;;;;;5028859;28;19924;-83
2022/09/29 08:53:44;;;;;;;;;;;;;;;;;;5030671;28;19943;-82
2022/09/29 08:56:32;;;;;;;;;;;;;;;;;;5026157;28;19931;-82
2022/09/29 08:59:19;;;;;;;;;;;;;;;;;;5034270;28;19929;-83
2022/09/29 09:02:06;;;;;;;;;;;;;;;;;;5028235;28;19977;-83
2022/09/29 09:04:52;;;;;;;;;;;;;;;;;;5028865;28;19921;-83
2022/09/29 09:07:39;;;;;;;;;;;;;;;;;;5020439;28;19928;-83
2022/09/29 09:10:25;;;;;;;;;;;;;;;;;;5024333;28;19919;-83
2022/09/29 09:13:12;;;;;;;;;;;;;;;;;;5030184;28;20076;-84
2022/09/29 09:15:59;;;;;;;;;;;;;;;;;;5032030;28;19960;-83
2022/09/29 09:18:46;;;;;;;;;;;;;;;;;;5024891;28;19929;-82
2022/09/29 09:21:33;;;;;;;;;;;;;;;;;;5043635;28;19916;-83
2022/09/29 09:24:20;;;;;;;;;;;;;;;;;;5034057;28;19920;-82
2022/09/29 09:27:06;;;;;;;;;;;;;;;;;;5030170;28;20008;-82
2022/09/29 09:29:52;;;;;;;;;;;;;;;;;;5025570;28;20031;-82
2022/09/29 09:32:39;;;;;;;;;;;;;;;;;;5031847;28;20383;-83
2022/09/29 09:35:25;;;;;;;;;;;;;;;;;;5046358;28;19924;-82
2022/09/29 09:38:12;;;;;;;;;;;;;;;;;;5030961;28;19935;-82
2022/09/29 09:40:59;;;;;;;;;;;;;;;;;;5043648;28;19917;-83
2022/09/29 09:43:45;;;;;;;;;;;;;;;;;;5043171;28;19921;-83
2022/09/29 09:46:32;;;;;;;;;;;;;;;;;;5027118;28;19924;-83
2022/09/29 09:49:18;;;;;;;;;;;;;;;;;;5025536;28;19947;-83
2022/09/29 09:52:05;;;;;;;;;;;;;;;;;;5032184;28;19928;-83
2022/09/29 09:54:52;;;;;;;;;;;;;;;;;;5028026;28;19943;-83
2022/09/29 09:57:38;;;;;;;;;;;;;;;;;;5019119;28;19930;-83
2022/09/29 10:00:25;;;;;;;;;;;;;;;;;;5020242;28;20300;-82
2022/09/29 10:03:13;;;;;;;;;;;;;;;;;;5028640;28;19925;-83
2022/09/29 10:05:59;;;;;;;;;;;;;;;;;;5031401;28;19931;-82
2022/09/29 10:08:46;;;;;;;;;;;;;;;;;;5030513;28;19927;-83
2022/09/29 10:11:32;;;;;;;;;;;;;;;;;;5027890;28;19923;-84
2022/09/29 10:14:19;;;;;;;;;;;;;;;;;;5025494;28;19924;-82
2022/09/29 10:17:06;;;;;;;;;;;;;;;;;;5032563;28;19920;-83
2022/09/29 10:19:52;;;;;;;;;;;;;;;;;;5030853;28;19925;-83
2022/09/29 10:22:39;;;;;;;;;;;;;;;;;;5035692;28;19927;-83
2022/09/29 10:25:25;;;;;;;;;;;;;;;;;;5020447;28;19924;-83
2022/09/29 10:28:12;;;;;;;;;;;;;;;;;;5026365;28;19928;-83
2022/09/29 10:30:58;;;;;;;;;;;;;;;;;;5028025;28;19936;-83
2022/09/29 10:33:45;;;;;;;;;;;;;;;;;;5034155;28;20355;-83
2022/09/29 10:36:31;;;;;;;;;;;;;;;;;;5030099;28;19923;-77
2022/09/29 10:39:18;;;;;;;;;;;;;;;;;;5000670;28;19932;-80
2022/09/29 10:42:04;;;;;;;;;;;;;;;;;;5029336;28;20377;-80
2022/09/29 10:44:51;;;;;;;;;;;;;;;;;;5038916;28;19917;-81
2022/09/29 10:47:37;;;;;;;;;;;;;;;;;;5027276;28;19947;-80
2022/09/29 10:50:24;;;;;;;;;;;;;;;;;;5039592;28;19929;-80
2022/09/29 10:53:10;;;;;;;;;;;;;;;;;;5028974;28;19921;-83
2022/09/29 10:55:57;;;;;;;;;;;;;;;;;;5015124;28;19957;-81
2022/09/29 10:58:43;;;;;;;;;;;;;;;;;;5034809;28;19929;-83
2022/09/29 11:01:30;;;;;;;;;;;;;;;;;;5039859;28;19958;-82
2022/09/29 11:04:18;;;;;;;;;;;;;;;;;;5029319;28;19924;-81
2022/09/29 11:07:05;;;;;;;;;;;;;;;;;;5029099;28;19917;-81
2022/09/29 11:09:53;;;;;;;;;;;;;;;;;;5027458;28;19920;-82
2022/09/29 11:12:40;;;;;;;;;;;;;;;;;;5039096;28;19917;-82
2022/09/29 11:15:27;;;;;;;;;;;;;;;;;;5027938;28;20269;-81
2022/09/29 11:18:14;;;;;;;;;;;;;;;;;;5038845;28;19925;-81
2022/09/29 11:21:00;;;;;;;;;;;;;;;;;;5015977;28;19924;-82
2022/09/29 11:23:47;;;;;;;;;;;;;;;;;;5038544;28;19931;-81
2022/09/29 11:26:33;;;;;;;;;;;;;;;;;;5028210;28;19920;-82
2022/09/29 11:29:20;;;;;;;;;;;;;;;;;;5043282;28;19921;-81
2022/09/29 11:32:07;;;;;;;;;;;;;;;;;;5026964;28;20347;-81
2022/09/29 11:34:53;;;;;;;;;;;;;;;;;;5037183;28;19913;-82
2022/09/29 11:37:40;;;;;;;;;;;;;;;;;;5035167;28;19921;-82
2022/09/29 11:40:27;;;;;;;;;;;;;;;;;;5043316;28;19913;-81
2022/09/29 11:43:13;;;;;;;;;;;;;;;;;;5032540;28;20299;-81
2022/09/29 11:46:00;;;;;;;;;;;;;;;;;;5032383;28;19924;-81
2022/09/29 11:48:46;;;;;;;;;;;;;;;;;;5033791;28;19927;-82
2022/09/29 11:51:32;;;;;;;;;;;;;;;;;;5023509;28;19932;-82
2022/09/29 11:54:19;;;;;;;;;;;;;;;;;;5023659;28;19925;-81
2022/09/29 11:57:05;;;;;;;;;;;;;;;;;;5033509;28;19928;-82
2022/09/29 11:59:52;;;;;;;;;;;;;;;;;;5037669;28;20371;-82
2022/09/29 12:02:38;;;;;;;;;;;;;;;;;;5042227;28;20404;-82
2022/09/29 12:05:25;;;;;;;;;;;;;;;;;;5022346;28;19916;-82
2022/09/29 12:08:11;;;;;;;;;;;;;;;;;;5033735;28;20414;-82
2022/09/29 12:10:58;;;;;;;;;;;;;;;;;;5030331;28;19913;-82
2022/09/29 12:13:45;;;;;;;;;;;;;;;;;;5026412;28;19921;-82
2022/09/29 12:16:31;;;;;;;;;;;;;;;;;;5034983;28;20299;-81
2022/09/29 12:19:18;;;;;;;;;;;;;;;;;;5047603;28;19935;-80
2022/09/29 12:22:04;;;;;;;;;;;;;;;;;;5044088;28;19917;-82
2022/09/29 12:24:50;;;;;;;;;;;;;;;;;;5026321;28;19916;-82
2022/09/29 12:27:37;;;;;;;;;;;;;;;;;;5027187;28;20424;-80
2022/09/29 12:30:25;;;;;;;;;;;;;;;;;;5027577;28;20432;-81
2022/09/29 12:33:11;;;;;;;;;;;;;;;;;;5031103;28;19996;-81
2022/09/29 12:35:58;;;;;;;;;;;;;;;;;;5027349;28;20303;-80
2022/09/29 12:38:44;;;;;;;;;;;;;;;;;;5046965;28;20391;-81
2022/09/29 12:41:30;;;;;;;;;;;;;;;;;;5044431;28;19925;-81
2022/09/29 12:44:17;;;;;;;;;;;;;;;;;;5026091;28;19939;-80
2022/09/29 12:47:03;;;;;;;;;;;;;;;;;;5029574;28;19923;-81
2022/09/29 12:49:50;;;;;;;;;;;;;;;;;;5027975;28;19924;-83
2022/09/29 12:52:37;;;;;;;;;;;;;;;;;;5030153;28;20157;-83
2022/09/29 12:55:24;;;;;;;;;;;;;;;;;;5028028;28;19921;-83
2022/09/29 12:58:10;;;;;;;;;;;;;;;;;;5047728;28;19923;-82
2022/09/29 13:00:57;;;;;;;;;;;;;;;;;;5044565;28;19927;-83
2022/09/29 13:03:43;;;;;;;;;;;;;;;;;;5031251;28;19917;-83
2022/09/29 13:06:30;;;;;;;;;;;;;;;;;;5042151;28;20006;-84
2022/09/29 13:09:17;;;;;;;;;;;;;;;;;;5019704;28;19936;-83
2022/09/29 13:12:03;;;;;;;;;;;;;;;;;;5027511;28;19921;-83
2022/09/29 13:14:50;;;;;;;;;;;;;;;;;;5041862;28;19920;-83
2022/09/29 13:17:36;;;;;;;;;;;;;;;;;;5017274;28;19920;-83
2022/09/29 13:20:23;;;;;;;;;;;;;;;;;;5018668;28;19929;-82
2022/09/29 13:23:10;;;;;;;;;;;;;;;;;;5045453;28;19916;-84
2022/09/29 13:25:57;;;;;;;;;;;;;;;;;;5033109;28;19923;-81
2022/09/29 13:28:43;;;;;;;;;;;;;;;;;;5041733;28;19936;-81
2022/09/29 13:31:31;;;;;;;;;;;;;;;;;;5030805;28;19927;-81
2022/09/29 13:34:17;;;;;;;;;;;;;;;;;;5031999;28;19916;-79
2022/09/29 13:37:04;;;;;;;;;;;;;;;;;;5043022;28;19923;-80
2022/09/29 13:39:50;;;;;;;;;;;;;;;;;;5038274;28;19935;-79
2022/09/29 13:42:37;;;;;;;;;;;;;;;;;;5029355;28;19913;-79
2022/09/29 13:45:26;;;;;;;;;;;;;;;;;;5029346;28;20281;-79
2022/09/29 13:48:13;;;;;;;;;;;;;;;;;;5028923;28;19923;-79
2022/09/29 13:51:01;;;;;;;;;;;;;;;;;;5023985;28;19936;-81
2022/09/29 13:53:48;;;;;;;;;;;;;;;;;;5008378;28;19921;-80
2022/09/29 13:56:34;;;;;;;;;;;;;;;;;;5007218;28;19929;-79
2022/09/29 13:59:21;;;;;;;;;;;;;;;;;;5011402;28;19937;-79
2022/09/29 14:02:07;;;;;;;;;;;;;;;;;;5008705;28;19920;-80
2022/09/29 14:04:54;;;;;;;;;;;;;;;;;;5024221;28;19917;-80
2022/09/29 14:07:41;;;;;;;;;;;;;;;;;;5020450;28;19924;-80
2022/09/29 14:10:27;;;;;;;;;;;;;;;;;;5012691;28;19924;-81
2022/09/29 14:13:14;;;;;;;;;;;;;;;;;;4988115;28;19917;-79
2022/09/29 14:16:00;;;;;;;;;;;;;;;;;;5003496;28;19928;-79
2022/09/29 14:18:47;;;;;;;;;;;;;;;;;;5005661;28;19952;-79
2022/09/29 14:21:33;;;;;;;;;;;;;;;;;;5003885;28;19914;-79
2022/09/29 14:24:19;;;;;;;;;;;;;;;;;;5007431;28;19928;-81
2022/09/29 14:27:06;;;;;;;;;;;;;;;;;;5009160;28;19964;-81
2022/09/29 14:29:54;;;;;;;;;;;;;;;;;;5005780;28;19921;-82
2022/09/29 14:32:41;;;;;;;;;;;;;;;;;;5007386;28;19921;-81
2022/09/29 14:35:27;;;;;;;;;;;;;;;;;;5004664;28;19929;-82
2022/09/29 14:38:14;;;;;;;;;;;;;;;;;;5010300;28;19924;-82
2022/09/29 14:41:00;;;;;;;;;;;;;;;;;;5004714;28;19921;-81
2022/09/29 14:43:47;;;;;;;;;;;;;;;;;;5002628;28;19917;-81
2022/09/29 14:52:44;;;;;;;;;;;;;;;;;;5039820;28;20685;-81
2022/09/29 14:55:30;;;;;;;;;;;;;;;;;;5022412;28;19917;-81
2022/09/29 14:58:17;;;;;;;;;;;;;;;;;;5030523;28;19913;-82
2022/09/29 15:01:08;;;;;;;;;;;;;;;;;;5029937;28;20019;-81
2022/09/29 15:03:55;;;;;;;;;;;;;;;;;;5032327;28;19997;-81
2022/09/29 15:06:42;;;;;;;;;;;;;;;;;;5035904;28;19917;-81
2022/09/29 15:09:28;;;;;;;;;;;;;;;;;;5022961;28;19928;-81
2022/09/29 15:12:15;;;;;;;;;;;;;;;;;;5027438;28;19928;-81
2022/09/29 15:15:01;;;;;;;;;;;;;;;;;;5037147;28;19917;-81
2022/09/29 15:17:48;;;;;;;;;;;;;;;;;;5044096;28;20273;-81
2022/09/29 15:20:35;;;;;;;;;;;;;;;;;;5035329;28;19934;-80
2022/09/29 15:23:21;;;;;;;;;;;;;;;;;;5026315;28;19928;-80
2022/09/29 15:26:08;;;;;;;;;;;;;;;;;;5021346;28;20292;-81
2022/09/29 15:28:54;;;;;;;;;;;;;;;;;;5031573;28;19917;-81
2022/09/29 15:31:42;;;;;;;;;;;;;;;;;;5029935;28;19965;-81
2022/09/29 15:34:28;;;;;;;;;;;;;;;;;;5041400;28;19928;-79
2022/09/29 15:37:15;;;;;;;;;;;;;;;;;;5040099;28;19943;-77
2022/09/29 15:40:02;;;;;;;;;;;;;;;;;;5030361;28;19921;-79
2022/09/29 15:42:50;;;;;;;;;;;;;;;;;;5024561;28;19916;-80
2022/09/29 15:45:37;;;;;;;;;;;;;;;;;;5029175;28;19955;-80
2022/09/29 15:48:24;;;;;;;;;;;;;;;;;;5022064;28;19931;-81
2022/09/29 15:51:11;;;;;;;;;;;;;;;;;;5040651;28;19928;-79
2022/09/29 15:54:03;;;;;;;;;;;;;;;;;;5040994;28;19921;-83
2022/09/29 15:59:55;;;;;;;;;;;;;;;;;;5042500;28;19928;-83
2022/09/29 16:02:41;;;;;;;;;;;;;;;;;;5025751;28;19916;-84
2022/09/29 16:05:28;;;;;;;;;;;;;;;;;;5027381;28;19958;-82
2022/09/29 16:08:15;;;;;;;;;;;;;;;;;;5040808;28;19921;-83
2022/09/29 16:11:03;;;;;;;;;;;;;;;;;;5026763;28;19916;-83
2022/09/29 16:13:49;;;;;;;;;;;;;;;;;;5029150;28;19921;-82
2022/09/29 16:16:36;;;;;;;;;;;;;;;;;;5040866;28;19917;-82
2022/09/29 16:19:25;;;;;;;;;;;;;;;;;;5039734;28;19929;-82
2022/09/29 16:22:12;;;;;;;;;;;;;;;;;;5044700;28;19923;-82
2022/09/29 16:24:58;;;;;;;;;;;;;;;;;;5026846;28;19943;-81
2022/09/29 16:27:47;;;;;;;;;;;;;;;;;;5018603;28;19913;-82
2022/09/29 16:30:42;;;;;;;;;;;;;;;;;;5030560;28;19925;-82
2022/09/29 16:33:28;;;;;;;;;;;;;;;;;;5032132;28;19927;-82
2022/09/29 16:36:15;;;;;;;;;;;;;;;;;;5042014;28;19921;-82
2022/09/29 16:39:01;;;;;;;;;;;;;;;;;;5043971;28;19935;-82
2022/09/29 16:41:48;;;;;;;;;;;;;;;;;;5033985;28;19925;-82
2022/09/29 16:44:34;;;;;;;;;;;;;;;;;;5030645;28;19920;-82
2022/09/29 16:47:21;;;;;;;;;;;;;;;;;;5037722;28;20000;-82
2022/09/29 16:50:07;;;;;;;;;;;;;;;;;;5025573;28;19921;-82
2022/09/29 16:52:54;;;;;;;;;;;;;;;;;;5040519;28;20407;-82
2022/09/29 16:55:40;;;;;;;;;;;;;;;;;;5029997;28;19916;-82
2022/09/29 16:58:27;;;;;;;;;;;;;;;;;;5028574;28;20318;-82
2022/09/29 17:01:13;;;;;;;;;;;;;;;;;;5031604;28;20376;-83
2022/09/29 17:04:00;;;;;;;;;;;;;;;;;;5027452;28;19925;-83
2022/09/29 17:06:47;;;;;;;;;;;;;;;;;;5027984;28;19924;-83
2022/09/29 17:09:33;;;;;;;;;;;;;;;;;;5013567;28;19916;-83
2022/09/29 17:12:20;;;;;;;;;;;;;;;;;;5030553;28;19947;-81
2022/09/29 17:15:06;;;;;;;;;;;;;;;;;;5028483;28;19916;-82
2022/09/29 17:17:53;;;;;;;;;;;;;;;;;;5038642;28;19913;-81
2022/09/29 17:20:40;;;;;;;;;;;;;;;;;;5024269;28;19929;-81
2022/09/29 17:23:26;;;;;;;;;;;;;;;;;;5027007;28;19924;-82
2022/09/29 17:29:19;;;;;;;;;;;;;;;;;;5044875;28;19923;-82
2022/09/29 17:32:07;;;;;;;;;;;;;;;;;;5027103;28;19925;-82
2022/09/29 17:34:54;;;;;;;;;;;;;;;;;;5028121;28;20398;-82
2022/09/29 17:37:41;;;;;;;;;;;;;;;;;;5026639;28;20471;-81
2022/09/29 17:40:27;;;;;;;;;;;;;;;;;;5028546;28;19925;-81
2022/09/29 17:43:16;;;;;;;;;;;;;;;;;;5031005;28;20471;-81
2022/09/29 17:46:02;;;;;;;;;;;;;;;;;;5045283;28;19917;-81
2022/09/29 17:48:49;;;;;;;;;;;;;;;;;;5030835;28;19925;-81
2022/09/29 17:51:35;;;;;;;;;;;;;;;;;;5030264;28;19929;-82
2022/09/29 17:54:25;;;;;;;;;;;;;;;;;;5351686;22;20116;-75
2022/09/29 17:57:13;;;;;;;;;;;;;;;;;;5036716;28;20401;-76
2022/09/29 17:59:59;;;;;;;;;;;;;;;;;;5030319;28;19925;-76
2022/09/29 18:02:46;;;;;;;;;;;;;;;;;;5032242;28;19923;-76
2022/09/29 18:05:32;;;;;;;;;;;;;;;;;;5033019;28;20446;-76
2022/09/29 18:08:20;;;;;;;;;;;;;;;;;;5036256;28;19921;-80
2022/09/29 18:11:07;;;;;;;;;;;;;;;;;;5033717;28;19915;-80
2022/09/29 18:13:53;;;;;;;;;;;;;;;;;;5037703;28;20387;-79
2022/09/29 18:16:40;;;;;;;;;;;;;;;;;;5049322;28;20389;-80
2022/09/29 18:19:27;;;;;;;;;;;;;;;;;;5043735;28;19931;-83
2022/09/29 18:22:13;;;;;;;;;;;;;;;;;;5036121;28;19915;-77
2022/09/29 18:25:00;;;;;;;;;;;;;;;;;;5033195;28;19925;-77
2022/09/29 18:27:46;;;;;;;;;;;;;;;;;;5032980;28;19924;-76
2022/09/29 18:30:38;;;;;;;;;;;;;;;;;;5036555;28;19928;-77
2022/09/29 18:33:26;;;;;;;;;;;;;;;;;;5038527;28;19917;-78
2022/09/29 18:36:13;;;;;;;;;;;;;;;;;;5039139;28;19931;-77
2022/09/29 18:38:59;;;;;;;;;;;;;;;;;;5036009;28;19925;-77
2022/09/29 18:41:46;;;;;;;;;;;;;;;;;;5036864;28;19916;-77
2022/09/29 18:44:32;;;;;;;;;;;;;;;;;;5034668;28;19913;-78
2022/09/29 18:47:19;;;;;;;;;;;;;;;;;;5033538;28;19928;-78
2022/09/29 18:50:06;;;;;;;;;;;;;;;;;;5033781;28;20286;-77
2022/09/29 18:52:52;;;;;;;;;;;;;;;;;;5032901;28;19917;-77
2022/09/29 18:55:40;;;;;;;;;;;;;;;;;;5018697;28;19932;-78
2022/09/29 18:58:26;;;;;;;;;;;;;;;;;;5017561;28;20381;-77
2022/09/29 19:01:13;;;;;;;;;;;;;;;;;;5015209;28;19922;-79
2022/09/29 19:04:00;;;;;;;;;;;;;;;;;;4994026;28;19918;-77
2022/09/29 19:06:46;;;;;;;;;;;;;;;;;;5015229;28;20466;-77
2022/09/29 19:09:33;;;;;;;;;;;;;;;;;;5016578;28;19944;-77